sensor_id;sensor_type;location;lat;lon;timestamp;P1;durP1;ratioP1;P2;durP2;ratioP2
39698;SDS011;25372;50.582;12.250;2023-08-17T00:05:25;6.45;;;4.57;;
39698;SDS011;25372;50.582;12.250;2023-08-17T00:15:47;7.30;;;4.43;;
39698;SDS011;25372;50.582;12.250;2023-08-17T00:26:08;8.10;;;5.22;;
39698;SDS011;25372;50.582;12.250;2023-08-17T00:36:31;5.97;;;4.78;;
39698;SDS011;25372;50.582;12.250;2023-08-17T00:46:52;8.07;;;5.32;;
39698;SDS011;25372;50.582;12.250;2023-08-17T00:57:14;8.75;;;5.65;;
39698;SDS011;25372;50.582;12.250;2023-08-17T01:07:35;6.97;;;5.15;;
39698;SDS011;25372;50.582;12.250;2023-08-17T01:17:58;9.63;;;5.63;;
39698;SDS011;25372;50.582;12.250;2023-08-17T01:28:25;7.57;;;4.53;;
39698;SDS011;25372;50.582;12.250;2023-08-17T01:38:46;7.25;;;4.60;;
39698;SDS011;25372;50.582;12.250;2023-08-17T01:49:10;11.93;;;4.72;;
39698;SDS011;25372;50.582;12.250;2023-08-17T01:59:31;9.95;;;4.07;;
39698;SDS011;25372;50.582;12.250;2023-08-17T02:09:54;7.55;;;5.07;;
39698;SDS011;25372;50.582;12.250;2023-08-17T02:20:15;8.45;;;5.47;;
39698;SDS011;25372;50.582;12.250;2023-08-17T02:30:38;7.72;;;5.35;;
39698;SDS011;25372;50.582;12.250;2023-08-17T02:40:59;9.98;;;6.05;;
39698;SDS011;25372;50.582;12.250;2023-08-17T02:51:21;10.85;;;6.18;;
39698;SDS011;25372;50.582;12.250;2023-08-17T03:01:42;8.65;;;5.22;;
39698;SDS011;25372;50.582;12.250;2023-08-17T03:12:08;8.37;;;5.03;;
39698;SDS011;25372;50.582;12.250;2023-08-17T03:22:28;8.68;;;4.95;;
39698;SDS011;25372;50.582;12.250;2023-08-17T03:32:51;12.13;;;5.78;;
39698;SDS011;25372;50.582;12.250;2023-08-17T03:43:11;10.88;;;6.15;;
39698;SDS011;25372;50.582;12.250;2023-08-17T03:53:34;8.98;;;5.32;;
39698;SDS011;25372;50.582;12.250;2023-08-17T04:03:55;8.77;;;5.20;;
39698;SDS011;25372;50.582;12.250;2023-08-17T04:14:17;10.75;;;5.63;;
39698;SDS011;25372;50.582;12.250;2023-08-17T04:24:41;8.15;;;4.80;;
39698;SDS011;25372;50.582;12.250;2023-08-17T04:35:04;9.75;;;6.20;;
39698;SDS011;25372;50.582;12.250;2023-08-17T04:45:25;10.57;;;5.88;;
39698;SDS011;25372;50.582;12.250;2023-08-17T04:55:48;8.18;;;5.30;;
39698;SDS011;25372;50.582;12.250;2023-08-17T05:06:09;9.38;;;6.10;;
39698;SDS011;25372;50.582;12.250;2023-08-17T05:16:32;11.38;;;6.22;;
39698;SDS011;25372;50.582;12.250;2023-08-17T05:26:53;11.05;;;5.68;;
39698;SDS011;25372;50.582;12.250;2023-08-17T05:37:16;8.95;;;5.47;;
39698;SDS011;25372;50.582;12.250;2023-08-17T05:47:37;8.07;;;4.78;;
39698;SDS011;25372;50.582;12.250;2023-08-17T05:57:59;10.07;;;5.75;;
39698;SDS011;25372;50.582;12.250;2023-08-17T06:08:20;10.27;;;6.45;;
39698;SDS011;25372;50.582;12.250;2023-08-17T06:18:42;7.88;;;5.40;;
39698;SDS011;25372;50.582;12.250;2023-08-17T06:29:03;8.20;;;5.30;;
39698;SDS011;25372;50.582;12.250;2023-08-17T06:39:25;9.32;;;6.40;;
39698;SDS011;25372;50.582;12.250;2023-08-17T06:49:46;7.47;;;4.18;;
39698;SDS011;25372;50.582;12.250;2023-08-17T07:00:09;5.72;;;4.20;;
39698;SDS011;25372;50.582;12.250;2023-08-17T07:10:31;8.65;;;5.07;;
39698;SDS011;25372;50.582;12.250;2023-08-17T07:20:53;9.63;;;4.82;;
39698;SDS011;25372;50.582;12.250;2023-08-17T07:31:14;9.15;;;5.40;;
39698;SDS011;25372;50.582;12.250;2023-08-17T07:41:36;8.73;;;4.60;;
39698;SDS011;25372;50.582;12.250;2023-08-17T07:51:57;9.07;;;5.68;;
39698;SDS011;25372;50.582;12.250;2023-08-17T08:02:20;8.48;;;5.72;;
39698;SDS011;25372;50.582;12.250;2023-08-17T08:12:40;7.68;;;5.68;;
39698;SDS011;25372;50.582;12.250;2023-08-17T08:23:03;6.25;;;4.68;;
39698;SDS011;25372;50.582;12.250;2023-08-17T08:33:24;8.45;;;5.43;;
39698;SDS011;25372;50.582;12.250;2023-08-17T08:43:46;9.18;;;5.07;;
39698;SDS011;25372;50.582;12.250;2023-08-17T08:54:07;5.90;;;4.97;;
39698;SDS011;25372;50.582;12.250;2023-08-17T09:04:34;6.90;;;4.90;;
39698;SDS011;25372;50.582;12.250;2023-08-17T09:14:56;8.45;;;4.72;;
39698;SDS011;25372;50.582;12.250;2023-08-17T09:25:21;5.20;;;3.90;;
39698;SDS011;25372;50.582;12.250;2023-08-17T09:35:43;8.93;;;4.22;;
39698;SDS011;25372;50.582;12.250;2023-08-17T09:46:05;7.68;;;4.43;;
39698;SDS011;25372;50.582;12.250;2023-08-17T09:56:27;4.32;;;3.83;;
39698;SDS011;25372;50.582;12.250;2023-08-17T10:06:51;5.07;;;3.92;;
39698;SDS011;25372;50.582;12.250;2023-08-17T10:17:15;5.88;;;3.97;;
39698;SDS011;25372;50.582;12.250;2023-08-17T10:27:43;5.30;;;3.85;;
39698;SDS011;25372;50.582;12.250;2023-08-17T10:38:05;5.45;;;3.85;;
39698;SDS011;25372;50.582;12.250;2023-08-17T10:48:28;4.13;;;3.63;;
39698;SDS011;25372;50.582;12.250;2023-08-17T10:58:51;6.65;;;4.60;;
39698;SDS011;25372;50.582;12.250;2023-08-17T11:09:14;6.85;;;4.72;;
39698;SDS011;25372;50.582;12.250;2023-08-17T11:19:39;5.30;;;4.25;;
39698;SDS011;25372;50.582;12.250;2023-08-17T11:30:01;5.50;;;4.00;;
39698;SDS011;25372;50.582;12.250;2023-08-17T11:40:23;5.63;;;4.03;;
39698;SDS011;25372;50.582;12.250;2023-08-17T11:50:47;5.75;;;3.92;;
39698;SDS011;25372;50.582;12.250;2023-08-17T12:01:09;4.37;;;3.83;;
39698;SDS011;25372;50.582;12.250;2023-08-17T12:11:33;6.75;;;4.35;;
39698;SDS011;25372;50.582;12.250;2023-08-17T12:21:53;7.60;;;4.82;;
39698;SDS011;25372;50.582;12.250;2023-08-17T12:32:16;6.75;;;4.47;;
39698;SDS011;25372;50.582;12.250;2023-08-17T12:42:38;5.85;;;4.28;;
39698;SDS011;25372;50.582;12.250;2023-08-17T12:53:00;5.18;;;3.53;;
39698;SDS011;25372;50.582;12.250;2023-08-17T13:03:21;4.30;;;3.60;;
39698;SDS011;25372;50.582;12.250;2023-08-17T13:13:43;3.90;;;3.47;;
39698;SDS011;25372;50.582;12.250;2023-08-17T13:24:04;6.00;;;3.25;;
39698;SDS011;25372;50.582;12.250;2023-08-17T13:34:27;4.82;;;3.20;;
39698;SDS011;25372;50.582;12.250;2023-08-17T13:44:48;4.20;;;3.78;;
39698;SDS011;25372;50.582;12.250;2023-08-17T13:55:10;4.43;;;3.05;;
39698;SDS011;25372;50.582;12.250;2023-08-17T14:05:31;5.60;;;3.70;;
39698;SDS011;25372;50.582;12.250;2023-08-17T14:15:54;5.43;;;3.17;;
39698;SDS011;25372;50.582;12.250;2023-08-17T14:26:15;3.83;;;3.15;;
39698;SDS011;25372;50.582;12.250;2023-08-17T14:36:37;3.80;;;3.25;;
39698;SDS011;25372;50.582;12.250;2023-08-17T14:46:58;3.55;;;3.10;;
39698;SDS011;25372;50.582;12.250;2023-08-17T14:57:20;3.65;;;3.25;;
39698;SDS011;25372;50.582;12.250;2023-08-17T15:07:41;6.90;;;3.88;;
39698;SDS011;25372;50.582;12.250;2023-08-17T15:18:04;4.78;;;3.53;;
39698;SDS011;25372;50.582;12.250;2023-08-17T15:28:25;5.55;;;4.03;;
39698;SDS011;25372;50.582;12.250;2023-08-17T15:38:47;6.72;;;4.10;;
39698;SDS011;25372;50.582;12.250;2023-08-17T15:49:08;5.55;;;3.78;;
39698;SDS011;25372;50.582;12.250;2023-08-17T15:59:30;4.53;;;3.75;;
39698;SDS011;25372;50.582;12.250;2023-08-17T16:09:51;4.32;;;3.72;;
39698;SDS011;25372;50.582;12.250;2023-08-17T16:20:13;6.28;;;4.05;;
39698;SDS011;25372;50.582;12.250;2023-08-17T16:30:34;5.70;;;4.30;;
39698;SDS011;25372;50.582;12.250;2023-08-17T16:40:58;7.47;;;4.55;;
39698;SDS011;25372;50.582;12.250;2023-08-17T16:51:18;6.20;;;5.18;;
39698;SDS011;25372;50.582;12.250;2023-08-17T17:01:40;5.97;;;4.25;;
39698;SDS011;25372;50.582;12.250;2023-08-17T17:12:02;9.48;;;4.38;;
39698;SDS011;25372;50.582;12.250;2023-08-17T17:22:25;5.00;;;3.92;;
39698;SDS011;25372;50.582;12.250;2023-08-17T17:32:46;4.65;;;4.03;;
39698;SDS011;25372;50.582;12.250;2023-08-17T17:43:08;4.88;;;3.85;;
39698;SDS011;25372;50.582;12.250;2023-08-17T17:53:29;7.05;;;4.97;;
39698;SDS011;25372;50.582;12.250;2023-08-17T18:03:52;7.20;;;4.80;;
39698;SDS011;25372;50.582;12.250;2023-08-17T18:14:13;7.57;;;5.05;;
39698;SDS011;25372;50.582;12.250;2023-08-17T18:24:36;6.90;;;4.97;;
39698;SDS011;25372;50.582;12.250;2023-08-17T18:34:56;6.95;;;4.53;;
39698;SDS011;25372;50.582;12.250;2023-08-17T18:45:19;6.43;;;4.38;;
39698;SDS011;25372;50.582;12.250;2023-08-17T18:55:40;9.00;;;4.72;;
39698;SDS011;25372;50.582;12.250;2023-08-17T19:06:02;4.95;;;3.88;;
39698;SDS011;25372;50.582;12.250;2023-08-17T19:16:23;4.25;;;3.53;;
39698;SDS011;25372;50.582;12.250;2023-08-17T19:26:46;6.20;;;3.60;;
39698;SDS011;25372;50.582;12.250;2023-08-17T19:37:07;6.55;;;4.18;;
39698;SDS011;25372;50.582;12.250;2023-08-17T19:47:30;7.97;;;5.15;;
39698;SDS011;25372;50.582;12.250;2023-08-17T19:57:50;7.00;;;4.72;;
39698;SDS011;25372;50.582;12.250;2023-08-17T20:08:12;6.13;;;4.45;;
39698;SDS011;25372;50.582;12.250;2023-08-17T20:18:33;7.95;;;4.65;;
39698;SDS011;25372;50.582;12.250;2023-08-17T20:28:55;6.95;;;4.50;;
39698;SDS011;25372;50.582;12.250;2023-08-17T20:39:16;10.98;;;5.43;;
39698;SDS011;25372;50.582;12.250;2023-08-17T20:49:39;7.38;;;4.75;;
39698;SDS011;25372;50.582;12.250;2023-08-17T21:00:02;10.17;;;6.13;;
39698;SDS011;25372;50.582;12.250;2023-08-17T21:20:48;6.43;;;4.35;;
39698;SDS011;25372;50.582;12.250;2023-08-17T21:31:10;4.95;;;4.15;;
39698;SDS011;25372;50.582;12.250;2023-08-17T21:41:31;6.38;;;4.35;;
39698;SDS011;25372;50.582;12.250;2023-08-17T21:51:53;8.13;;;4.25;;
39698;SDS011;25372;50.582;12.250;2023-08-17T22:02:14;5.07;;;3.65;;
39698;SDS011;25372;50.582;12.250;2023-08-17T22:12:36;7.03;;;4.30;;
39698;SDS011;25372;50.582;12.250;2023-08-17T22:22:57;7.80;;;4.28;;
39698;SDS011;25372;50.582;12.250;2023-08-17T22:33:19;7.00;;;3.80;;
39698;SDS011;25372;50.582;12.250;2023-08-17T22:43:40;6.22;;;4.10;;
39698;SDS011;25372;50.582;12.250;2023-08-17T22:54:02;5.35;;;4.05;;
39698;SDS011;25372;50.582;12.250;2023-08-17T23:04:23;6.00;;;4.50;;
39698;SDS011;25372;50.582;12.250;2023-08-17T23:14:45;7.00;;;4.63;;
39698;SDS011;25372;50.582;12.250;2023-08-17T23:25:06;7.57;;;4.38;;
39698;SDS011;25372;50.582;12.250;2023-08-17T23:35:29;9.85;;;4.53;;
39698;SDS011;25372;50.582;12.250;2023-08-17T23:45:50;7.50;;;3.97;;
39698;SDS011;25372;50.582;12.250;2023-08-17T23:56:12;6.38;;;4.43;;
